Sao Sebastiao do Paraiso, Brazil
Current Conditions -  °F | °C
As of 12:00 AM on Sunday 26 Oct 2014 (Local Time) from SBRP Reporting Station
Light Rain Light Rain  
Wind Chill: 68°   Ceiling: 10000
Heat Index: 68°   Visibility: 5mi
Dew Point: 64°   Wind: 5mph
Humidity: 88%   Direction: 60°ENE
Pressure: 30"   Gusts: NA
Location:  20.92°S, 46.99°W
Report Text: SBRP 260200Z 06004KT 8000 -RA FEW048 OVC100 20/18 Q1016
Loading
Personal Weather Stations






























Interactive Weather Map
Tropical Storm Tracking
New forecast layout! Learn more

10-Day Weather Forecast

Advertisements
Track Severe Weather on mobile